Time;durP1;ratioP1;P1;durP2;ratioP2;P2;SDS_P1;SDS_P2;PMS_P1;PMS_P2;Temp;Humidity;BMP_temperature;BMP_pressure;BME280_temperature;BME280_humidity;BME280_pressure;Samples;Min_cycle;Max_cycle;Signal;HPM_P1;HPM_P2
2022/12/31 00:01:04;;;;;;;2.83;0.57;;;14.60;99.90;;;;;;5113386;28;20487;-68
2022/12/31 00:03:31;;;;;;;1.43;0.90;;;14.60;99.90;;;;;;5113623;28;20432;-68
2022/12/31 00:05:58;;;;;;;1.57;0.60;;;14.60;99.90;;;;;;5113693;28;20476;-68
2022/12/31 00:08:24;;;;;;;3.33;2.07;;;14.70;99.90;;;;;;5113369;28;20951;-68
2022/12/31 00:10:53;;;;;;;2.00;1.90;;;14.70;99.90;;;;;;5113531;28;20490;-68
2022/12/31 00:13:20;;;;;;;1.00;1.00;;;14.60;99.90;;;;;;5113612;28;20432;-68
2022/12/31 00:15:47;;;;;;;3.00;2.00;;;14.70;99.90;;;;;;5113621;28;20496;-68
2022/12/31 00:18:13;;;;;;;2.83;2.63;;;14.70;99.90;;;;;;5114143;28;20451;-68
2022/12/31 00:20:41;;;;;;;2.07;1.43;;;14.70;99.90;;;;;;5113577;28;20505;-68
2022/12/31 00:23:09;;;;;;;2.20;1.20;;;14.70;99.90;;;;;;5113630;28;20478;-68
2022/12/31 00:25:36;;;;;;;9.07;5.67;;;14.80;99.90;;;;;;5113834;28;20492;-68
2022/12/31 00:28:04;;;;;;;4.67;1.10;;;14.80;99.90;;;;;;5117159;28;20453;-68
2022/12/31 00:30:31;;;;;;;7.07;3.13;;;14.80;99.90;;;;;;5117549;28;20450;-68
2022/12/31 00:32:58;;;;;;;6.03;1.87;;;14.90;99.90;;;;;;5117551;28;20474;-68
2022/12/31 00:35:25;;;;;;;3.17;1.00;;;14.80;99.90;;;;;;5117488;28;20454;-68
2022/12/31 00:37:52;;;;;;;3.17;1.47;;;14.90;99.90;;;;;;5117063;28;20463;-68
2022/12/31 00:40:19;;;;;;;2.40;0.83;;;14.80;99.90;;;;;;5116808;28;21001;-68
2022/12/31 00:42:46;;;;;;;2.30;1.10;;;14.80;99.90;;;;;;5117281;28;20470;-68
2022/12/31 00:45:14;;;;;;;2.50;0.50;;;14.90;99.90;;;;;;5117012;28;20448;-69
2022/12/31 00:47:40;;;;;;;22.20;1.60;;;14.90;99.90;;;;;;5117049;28;20439;-68
2022/12/31 00:50:08;;;;;;;2.47;0.70;;;14.90;99.90;;;;;;5117126;28;20453;-68
2022/12/31 00:52:35;;;;;;;1.60;0.70;;;14.90;99.90;;;;;;5117035;28;20834;-68
2022/12/31 00:55:01;;;;;;;3.60;1.20;;;14.90;99.90;;;;;;5117273;28;20447;-68
2022/12/31 00:57:28;;;;;;;2.57;0.83;;;15.00;99.90;;;;;;5116968;28;20814;-68
2022/12/31 00:59:55;;;;;;;3.70;0.57;;;15.00;99.90;;;;;;5117143;28;20454;-68
2022/12/31 01:02:23;;;;;;;1.23;0.73;;;15.00;99.90;;;;;;5116695;28;20504;-68
2022/12/31 01:04:49;;;;;;;1.20;0.57;;;15.00;99.90;;;;;;5116859;28;20455;-68
2022/12/31 01:07:16;;;;;;;2.60;0.53;;;15.00;99.90;;;;;;5116732;28;20807;-68
2022/12/31 01:09:43;;;;;;;2.33;0.50;;;15.10;99.90;;;;;;5116767;28;20451;-68
2022/12/31 01:12:11;;;;;;;5.33;0.50;;;15.10;99.90;;;;;;5116490;28;20467;-68
2022/12/31 01:14:38;;;;;;;3.27;0.60;;;15.10;99.90;;;;;;5117230;28;20446;-68
2022/12/31 01:17:04;;;;;;;3.60;0.50;;;15.10;99.90;;;;;;5116464;28;20508;-68
2022/12/31 01:19:32;;;;;;;0.97;0.33;;;15.20;99.90;;;;;;5116553;28;20454;-68
2022/12/31 01:21:59;;;;;;;0.77;0.40;;;15.30;99.90;;;;;;5116383;28;20493;-67
2022/12/31 01:24:27;;;;;;;1.70;0.40;;;15.30;99.90;;;;;;5116370;28;20443;-68
2022/12/31 01:26:56;;;;;;;2.20;0.60;;;15.40;99.90;;;;;;5116692;28;20433;-68
2022/12/31 01:29:23;;;;;;;2.17;0.37;;;15.30;99.90;;;;;;5116662;28;20451;-67
2022/12/31 01:31:49;;;;;;;0.67;0.30;;;15.50;99.90;;;;;;5116567;27;20467;-68
2022/12/31 01:34:16;;;;;;;1.77;0.40;;;15.50;99.90;;;;;;5117096;28;20948;-67
2022/12/31 01:36:44;;;;;;;0.70;0.30;;;15.60;99.90;;;;;;5116418;28;20806;-67
2022/12/31 01:39:12;;;;;;;2.77;0.30;;;15.60;99.90;;;;;;5116057;28;20466;-67
2022/12/31 01:41:41;;;;;;;2.23;0.40;;;15.60;99.90;;;;;;5116126;28;20487;-67
2022/12/31 01:44:45;;;;;;;0.87;0.80;;;15.70;99.90;;;;;;5116144;28;20436;-67
2022/12/31 01:47:15;;;;;;;0.60;0.20;;;15.70;99.90;;;;;;5116074;28;20451;-67
2022/12/31 01:49:44;;;;;;;0.40;0.20;;;15.80;99.90;;;;;;5116235;28;20464;-67
2022/12/31 01:52:17;;;;;;;0.73;0.30;;;15.80;99.90;;;;;;5116162;28;20512;-68
2022/12/31 01:54:49;;;;;;;0.50;0.30;;;15.90;99.90;;;;;;5116203;28;20435;-67
2022/12/31 01:57:17;;;;;;;0.50;0.20;;;15.90;99.90;;;;;;5116106;28;20786;-67
2022/12/31 01:59:45;;;;;;;0.30;0.20;;;15.90;99.90;;;;;;5116261;28;20428;-67
2022/12/31 02:02:12;;;;;;;2.83;0.40;;;15.90;99.90;;;;;;5115887;28;20498;-67
2022/12/31 02:04:39;;;;;;;0.90;0.27;;;15.90;99.90;;;;;;5115572;28;21003;-67
2022/12/31 02:07:07;;;;;;;0.40;0.30;;;16.00;99.90;;;;;;5115862;28;20463;-67
2022/12/31 02:09:38;;;;;;;0.70;0.20;;;16.00;99.90;;;;;;5115680;28;20451;-67
2022/12/31 02:12:06;;;;;;;1.10;0.30;;;16.00;99.90;;;;;;5115724;28;20983;-67
2022/12/31 02:14:36;;;;;;;0.30;0.20;;;16.00;99.90;;;;;;5116329;28;20473;-67
2022/12/31 02:17:10;;;;;;;1.50;0.33;;;16.00;99.90;;;;;;5115708;28;20435;-67
2022/12/31 02:19:55;;;;;;;2.40;0.40;;;16.00;99.90;;;;;;5116028;28;20431;-67
2022/12/31 02:22:31;;;;;;;0.50;0.20;;;15.90;99.90;;;;;;5116171;28;20574;-67
2022/12/31 02:25:14;;;;;;;0.70;0.20;;;15.90;99.90;;;;;;5116617;28;20438;-67
2022/12/31 02:27:53;;;;;;;0.30;0.20;;;16.00;99.90;;;;;;5118330;28;20450;-67
2022/12/31 02:30:23;;;;;;;0.40;0.20;;;16.00;99.90;;;;;;5117412;28;20442;-68
2022/12/31 02:33:04;;;;;;;1.20;0.30;;;16.00;99.90;;;;;;5116446;28;20474;-67
2022/12/31 02:35:34;;;;;;;0.50;0.30;;;16.00;99.90;;;;;;5116001;28;20441;-67
2022/12/31 02:38:05;;;;;;;0.70;0.30;;;16.00;99.90;;;;;;5115648;28;20457;-67
2022/12/31 02:40:34;;;;;;;2.70;0.30;;;16.10;99.90;;;;;;5115179;28;20528;-67
2022/12/31 02:43:01;;;;;;;1.23;0.20;;;16.10;99.90;;;;;;5116104;28;20483;-67
2022/12/31 02:45:35;;;;;;;1.80;0.30;;;16.10;99.90;;;;;;5115593;28;20455;-67
2022/12/31 02:48:14;;;;;;;2.30;0.30;;;16.10;99.90;;;;;;5114791;28;20438;-67
2022/12/31 02:50:55;;;;;;;0.90;0.20;;;16.10;99.90;;;;;;5114343;28;20842;-67
2022/12/31 02:53:34;;;;;;;0.97;0.30;;;16.10;99.90;;;;;;5114721;28;20435;-67
2022/12/31 02:56:08;;;;;;;1.30;0.27;;;16.20;99.90;;;;;;5114768;28;20442;-67
2022/12/31 03:04:33;;;;;;;0.97;0.40;;;16.30;99.90;;;;;;5114519;28;20411;-67
2022/12/31 03:07:01;;;;;;;1.87;0.40;;;16.20;99.90;;;;;;5114096;28;20887;-66
2022/12/31 03:09:28;;;;;;;0.40;0.30;;;16.30;99.90;;;;;;5114352;27;20501;-67
2022/12/31 03:14:39;;;;;;;1.13;0.37;;;16.30;99.90;;;;;;5114288;28;20764;-67
2022/12/31 03:17:07;;;;;;;0.70;0.30;;;16.30;99.90;;;;;;5114320;28;20451;-67
2022/12/31 03:22:27;;;;;;;0.40;0.20;;;16.30;99.90;;;;;;5114326;28;20474;-67
2022/12/31 03:27:39;;;;;;;0.80;0.30;;;16.30;99.90;;;;;;5113830;28;20410;-67
2022/12/31 03:30:07;;;;;;;2.03;0.30;;;16.30;99.90;;;;;;5113743;28;20447;-67
2022/12/31 03:32:35;;;;;;;0.87;0.30;;;16.20;99.90;;;;;;5114244;28;20467;-67
2022/12/31 03:35:02;;;;;;;4.13;0.40;;;16.20;99.90;;;;;;5113999;28;20455;-67
2022/12/31 03:37:28;;;;;;;2.73;0.30;;;16.10;99.90;;;;;;5113909;28;20449;-67
2022/12/31 03:39:55;;;;;;;0.40;0.30;;;16.10;99.90;;;;;;5113954;28;20879;-67
2022/12/31 03:42:22;;;;;;;1.77;0.50;;;16.00;99.90;;;;;;5113714;28;20487;-67
2022/12/31 03:44:49;;;;;;;0.40;0.30;;;16.10;99.90;;;;;;5113879;28;20455;-67
2022/12/31 03:47:16;;;;;;;2.10;0.30;;;16.00;99.90;;;;;;5113964;28;20585;-67
2022/12/31 03:49:44;;;;;;;1.00;0.30;;;16.00;99.90;;;;;;5113864;28;20451;-68
2022/12/31 03:52:10;;;;;;;1.73;0.40;;;16.10;99.90;;;;;;5113766;28;20466;-68
2022/12/31 03:54:37;;;;;;;0.70;0.30;;;16.00;99.90;;;;;;5113766;28;20459;-68
2022/12/31 03:57:04;;;;;;;1.50;0.50;;;16.00;99.90;;;;;;5113757;28;20446;-68
2022/12/31 03:59:30;;;;;;;1.20;0.20;;;16.00;99.90;;;;;;5113454;28;20973;-68
2022/12/31 04:01:57;;;;;;;0.40;0.20;;;16.10;99.90;;;;;;5115518;28;20487;-68
2022/12/31 04:04:24;;;;;;;0.50;0.40;;;16.00;99.90;;;;;;5117825;28;20446;-68
2022/12/31 04:06:52;;;;;;;1.13;0.40;;;16.00;99.90;;;;;;5117853;28;20792;-68
2022/12/31 04:09:19;;;;;;;0.50;0.40;;;16.00;99.90;;;;;;5117748;28;20450;-68
2022/12/31 04:11:45;;;;;;;1.10;0.40;;;16.00;99.90;;;;;;5117617;28;20474;-68
2022/12/31 04:14:12;;;;;;;0.50;0.30;;;16.00;99.90;;;;;;5117632;28;20453;-68
2022/12/31 04:16:39;;;;;;;1.63;0.80;;;16.00;99.90;;;;;;5117567;28;20453;-68
2022/12/31 04:19:06;;;;;;;1.33;0.50;;;16.00;99.90;;;;;;5117256;28;20950;-68
2022/12/31 04:21:33;;;;;;;7.07;0.30;;;16.10;99.90;;;;;;5117382;28;20479;-67
2022/12/31 04:24:01;;;;;;;0.87;0.53;;;16.10;99.90;;;;;;5117493;28;20500;-67
2022/12/31 04:26:28;;;;;;;0.83;0.33;;;16.10;99.90;;;;;;5117778;28;20439;-67
2022/12/31 04:28:54;;;;;;;0.93;0.30;;;16.10;99.90;;;;;;5117664;28;20451;-67
2022/12/31 04:31:21;;;;;;;3.60;0.60;;;16.10;99.90;;;;;;5117037;28;21023;-67
2022/12/31 04:33:48;;;;;;;1.70;0.33;;;16.10;99.90;;;;;;5117250;28;20451;-67
2022/12/31 04:36:14;;;;;;;2.53;0.40;;;16.20;99.90;;;;;;5117484;28;20447;-67
2022/12/31 04:38:41;;;;;;;1.23;0.30;;;16.20;99.90;;;;;;5116883;28;20969;-67
2022/12/31 04:41:19;;;;;;;0.40;0.30;;;16.30;99.90;;;;;;5116607;28;20494;-67
2022/12/31 04:43:48;;;;;;;1.33;0.50;;;16.30;99.90;;;;;;5117074;28;20473;-67
2022/12/31 04:46:16;;;;;;;0.40;0.40;;;16.30;99.90;;;;;;5116671;28;20970;-67
2022/12/31 04:48:43;;;;;;;1.13;0.40;;;16.30;99.90;;;;;;5117052;28;20446;-67
2022/12/31 04:51:10;;;;;;;2.00;0.40;;;16.40;99.90;;;;;;5116606;28;20477;-68
2022/12/31 04:53:36;;;;;;;2.07;0.50;;;16.40;99.90;;;;;;5116987;28;20440;-67
2022/12/31 04:56:04;;;;;;;1.47;0.40;;;16.40;99.90;;;;;;5116936;28;20442;-67
2022/12/31 04:58:33;;;;;;;3.07;0.60;;;16.40;99.90;;;;;;5116580;28;20454;-67
2022/12/31 05:01:00;;;;;;;1.30;0.40;;;16.40;99.90;;;;;;5116877;28;20494;-67
2022/12/31 05:03:27;;;;;;;0.50;0.37;;;16.40;99.90;;;;;;5116811;28;20494;-67
2022/12/31 05:05:54;;;;;;;5.17;0.60;;;16.40;99.90;;;;;;5116727;28;20534;-67
2022/12/31 05:08:21;;;;;;;2.00;0.50;;;16.40;99.90;;;;;;5116630;28;20451;-67
2022/12/31 05:10:49;;;;;;;1.13;0.33;;;16.40;99.90;;;;;;5116614;28;20478;-68
2022/12/31 05:13:16;;;;;;;2.70;0.60;;;16.50;99.90;;;;;;5115909;28;20843;-68
2022/12/31 05:15:46;;;;;;;1.47;0.40;;;16.40;99.90;;;;;;5116815;28;20450;-67
2022/12/31 05:18:13;;;;;;;0.40;0.30;;;16.40;99.90;;;;;;5116506;27;20485;-67
2022/12/31 05:20:39;;;;;;;1.03;0.50;;;16.40;99.90;;;;;;5116011;28;20841;-67
2022/12/31 05:23:06;;;;;;;1.83;0.50;;;16.50;99.90;;;;;;5116288;28;20487;-67
2022/12/31 05:25:33;;;;;;;2.50;0.50;;;16.40;99.90;;;;;;5116276;28;20459;-67
2022/12/31 05:28:01;;;;;;;3.40;0.80;;;16.50;99.90;;;;;;5116575;28;20436;-67
2022/12/31 05:30:27;;;;;;;1.03;0.50;;;16.50;99.90;;;;;;5116175;28;20486;-67
2022/12/31 05:32:55;;;;;;;1.97;1.27;;;16.50;99.90;;;;;;5115902;28;20946;-67
2022/12/31 05:35:22;;;;;;;4.13;0.57;;;16.50;99.90;;;;;;5116157;28;20447;-67
2022/12/31 05:37:49;;;;;;;0.83;0.60;;;16.50;99.90;;;;;;5116236;28;20431;-67
2022/12/31 05:40:16;;;;;;;1.33;0.50;;;16.50;99.90;;;;;;5116052;28;20972;-67
2022/12/31 05:42:42;;;;;;;2.20;0.40;;;16.50;99.90;;;;;;5115937;28;20479;-67
2022/12/31 05:45:12;;;;;;;4.23;0.40;;;16.50;99.90;;;;;;5115889;28;20458;-67
2022/12/31 05:47:39;;;;;;;1.40;0.40;;;16.50;99.90;;;;;;5115926;28;20874;-67
2022/12/31 05:50:08;;;;;;;1.47;0.60;;;16.50;99.90;;;;;;5115928;28;20446;-68
2022/12/31 05:52:35;;;;;;;4.17;0.63;;;16.50;99.90;;;;;;5115843;28;20467;-67
2022/12/31 05:55:01;;;;;;;2.30;0.77;;;16.50;99.90;;;;;;5115669;28;20427;-68
2022/12/31 05:57:28;;;;;;;1.27;0.77;;;16.50;99.90;;;;;;5115494;28;20954;-67
2022/12/31 05:59:55;;;;;;;3.40;0.60;;;16.50;99.90;;;;;;5115650;28;20454;-67
2022/12/31 06:02:22;;;;;;;3.03;0.90;;;16.50;99.90;;;;;;5115141;28;20486;-67
2022/12/31 06:04:49;;;;;;;1.23;0.57;;;16.60;99.90;;;;;;5115534;28;20483;-67
2022/12/31 06:07:17;;;;;;;3.13;0.70;;;16.60;99.90;;;;;;5115422;28;20446;-67
2022/12/31 06:09:44;;;;;;;1.60;0.80;;;16.60;99.90;;;;;;5115418;28;20859;-67
2022/12/31 06:12:10;;;;;;;3.73;0.53;;;16.60;99.90;;;;;;5115294;28;20482;-67
2022/12/31 06:14:37;;;;;;;2.20;0.60;;;16.60;99.90;;;;;;5115577;28;20498;-67
2022/12/31 06:17:04;;;;;;;2.00;0.60;;;16.60;99.90;;;;;;5115315;28;20458;-67
2022/12/31 06:19:30;;;;;;;3.33;0.70;;;16.60;99.90;;;;;;5115307;28;20450;-67
2022/12/31 06:21:57;;;;;;;2.97;0.73;;;16.60;99.90;;;;;;5114782;28;21006;-67
2022/12/31 06:24:25;;;;;;;1.53;0.50;;;16.70;99.90;;;;;;5114372;28;20447;-67
2022/12/31 06:26:52;;;;;;;2.67;1.00;;;16.70;99.90;;;;;;5115173;28;20434;-67
2022/12/31 06:29:19;;;;;;;4.60;0.80;;;16.70;99.90;;;;;;5115062;28;20454;-67
2022/12/31 06:31:45;;;;;;;1.00;0.60;;;16.70;99.90;;;;;;5114968;28;20467;-67
2022/12/31 06:34:12;;;;;;;2.50;0.80;;;16.80;99.90;;;;;;5115091;28;20439;-67
2022/12/31 06:36:39;;;;;;;0.80;0.40;;;16.80;99.90;;;;;;5114947;28;20451;-67
2022/12/31 06:39:06;;;;;;;1.63;0.70;;;16.80;99.90;;;;;;5114810;28;20827;-67
2022/12/31 06:41:35;;;;;;;2.47;0.67;;;16.80;99.90;;;;;;5114928;28;20622;-67
2022/12/31 06:44:01;;;;;;;3.93;0.97;;;16.80;99.90;;;;;;5114387;28;20955;-67
2022/12/31 06:46:28;;;;;;;4.30;0.70;;;16.80;99.90;;;;;;5114880;27;20451;-67
2022/12/31 06:48:55;;;;;;;3.57;0.77;;;16.70;99.90;;;;;;5114785;28;20454;-67
2022/12/31 06:51:22;;;;;;;1.20;0.60;;;16.70;99.90;;;;;;5114618;28;20474;-67
2022/12/31 06:53:51;;;;;;;5.07;0.97;;;16.70;99.90;;;;;;5114830;28;20447;-67
2022/12/31 06:56:19;;;;;;;1.90;0.87;;;16.70;99.90;;;;;;5114765;28;20443;-67
2022/12/31 06:58:48;;;;;;;2.60;1.47;;;16.70;99.90;;;;;;5114647;28;20450;-67
2022/12/31 07:01:42;;;;;;;1.53;0.70;;;16.70;99.90;;;;;;5114605;28;20830;-68
2022/12/31 07:04:46;;;;;;;5.63;1.13;;;16.70;99.90;;;;;;5114800;28;20459;-67
2022/12/31 07:07:20;;;;;;;1.87;0.70;;;16.70;99.90;;;;;;5077819;28;20450;-67
2022/12/31 07:09:55;;;;;;;4.10;1.00;;;16.70;99.90;;;;;;5114524;28;20439;-67
2022/12/31 07:12:35;;;;;;;2.70;0.90;;;16.70;99.90;;;;;;5113957;28;20993;-67
2022/12/31 07:15:09;;;;;;;3.03;0.80;;;16.80;99.90;;;;;;5114263;28;20529;-68
2022/12/31 07:17:44;;;;;;;4.53;1.27;;;16.70;99.90;;;;;;5114331;28;20423;-67
2022/12/31 07:20:13;;;;;;;2.20;0.90;;;16.70;99.90;;;;;;5114331;28;20434;-67
2022/12/31 07:22:40;;;;;;;4.00;0.70;;;16.70;99.90;;;;;;5114052;28;20571;-67
2022/12/31 07:25:12;;;;;;;1.70;0.90;;;16.80;99.90;;;;;;5114172;28;20451;-67
2022/12/31 07:27:57;;;;;;;4.17;1.23;;;16.80;99.90;;;;;;5114433;28;20432;-68
2022/12/31 07:30:31;;;;;;;1.23;0.60;;;16.80;99.90;;;;;;5114578;28;20435;-68
2022/12/31 07:33:19;;;;;;;2.90;0.80;;;16.80;99.70;;;;;;5121324;27;20902;-68
2022/12/31 07:35:56;;;;;;;4.47;0.77;;;16.90;99.70;;;;;;5114400;28;20907;-67
2022/12/31 07:38:36;;;;;;;3.80;0.57;;;16.90;99.60;;;;;;5114102;28;20427;-67
2022/12/31 07:41:08;;;;;;;0.80;0.60;;;16.90;99.30;;;;;;5114069;28;20498;-67
2022/12/31 07:43:48;;;;;;;6.70;1.03;;;17.00;99.10;;;;;;5114037;28;20826;-67
2022/12/31 07:46:24;;;;;;;2.90;0.70;;;17.00;99.00;;;;;;5114583;28;20442;-67
2022/12/31 07:48:51;;;;;;;4.30;0.70;;;17.00;98.90;;;;;;5114421;28;20465;-67
2022/12/31 07:51:18;;;;;;;2.17;0.77;;;17.00;98.90;;;;;;5113964;28;20878;-67
2022/12/31 07:53:45;;;;;;;5.17;1.10;;;17.00;98.70;;;;;;5113817;28;20444;-67
2022/12/31 07:56:12;;;;;;;1.63;0.70;;;17.00;98.70;;;;;;5113978;28;20435;-67
2022/12/31 07:58:53;;;;;;;4.83;1.03;;;17.00;98.50;;;;;;5113584;28;20966;-67
2022/12/31 08:01:31;;;;;;;2.40;0.97;;;17.00;98.70;;;;;;5113963;28;20474;-67
2022/12/31 08:04:04;;;;;;;1.87;0.80;;;17.00;98.40;;;;;;5113897;28;20470;-67
2022/12/31 08:06:38;;;;;;;2.23;0.90;;;17.00;98.40;;;;;;5114070;28;20439;-67
2022/12/31 08:09:24;;;;;;;5.03;1.03;;;17.00;98.40;;;;;;5113956;28;20431;-67
2022/12/31 08:11:56;;;;;;;4.20;0.83;;;17.00;98.70;;;;;;5113773;28;20470;-67
2022/12/31 08:14:23;;;;;;;1.70;0.67;;;17.00;98.50;;;;;;5114148;28;20428;-67
2022/12/31 08:16:52;;;;;;;2.30;0.80;;;17.00;98.40;;;;;;5114034;28;20450;-67
2022/12/31 08:19:24;;;;;;;2.30;0.70;;;17.00;98.40;;;;;;5114214;28;20454;-67
2022/12/31 08:22:03;;;;;;;4.87;0.83;;;17.00;98.30;;;;;;5114144;28;20462;-67
2022/12/31 08:24:37;;;;;;;3.60;0.90;;;17.10;98.50;;;;;;5113988;28;20470;-67
2022/12/31 08:27:12;;;;;;;2.00;0.97;;;17.10;98.30;;;;;;5113974;28;20822;-68
2022/12/31 08:29:48;;;;;;;2.57;0.57;;;17.00;98.20;;;;;;5114106;28;20922;-68
2022/12/31 08:32:21;;;;;;;5.80;1.37;;;17.10;98.20;;;;;;5113923;28;20974;-68
2022/12/31 08:34:58;;;;;;;4.53;1.53;;;17.10;98.00;;;;;;5113926;28;20906;-68
2022/12/31 08:37:35;;;;;;;3.23;1.20;;;17.10;98.00;;;;;;5114544;28;20439;-68
2022/12/31 08:40:22;;;;;;;4.33;1.00;;;17.20;97.80;;;;;;5109642;28;20465;-67
2022/12/31 08:43:05;;;;;;;6.73;1.40;;;17.20;97.80;;;;;;5115248;28;20435;-68
2022/12/31 08:45:37;;;;;;;4.97;1.10;;;17.20;97.70;;;;;;5096757;28;20424;-68
2022/12/31 08:48:11;;;;;;;7.27;1.10;;;17.30;97.70;;;;;;5097930;28;20443;-68
2022/12/31 08:50:38;;;;;;;4.13;0.90;;;17.30;97.50;;;;;;5100070;28;20436;-68
2022/12/31 08:53:05;;;;;;;2.93;0.83;;;17.30;97.50;;;;;;5105731;28;20443;-67
2022/12/31 08:55:32;;;;;;;4.03;0.97;;;17.30;97.40;;;;;;5122081;28;20454;-67
2022/12/31 08:58:12;;;;;;;3.23;1.10;;;17.40;97.40;;;;;;5121596;28;20454;-67
2022/12/31 09:00:40;;;;;;;7.17;1.40;;;17.50;97.30;;;;;;5117215;28;20890;-68
2022/12/31 09:03:34;;;;;;;3.23;1.10;;;17.40;97.10;;;;;;5112752;28;20483;-68
2022/12/31 09:06:10;;;;;;;8.30;1.43;;;17.50;97.40;;;;;;5096775;28;20447;-68
2022/12/31 09:08:45;;;;;;;6.93;1.63;;;17.50;97.10;;;;;;5097418;28;20889;-67
2022/12/31 09:11:15;;;;;;;6.67;1.43;;;17.50;97.00;;;;;;5096445;28;20475;-68
2022/12/31 09:14:06;;;;;;;2.67;0.93;;;17.60;97.20;;;;;;5096510;28;20433;-67
2022/12/31 09:23:23;;;;;;;2.17;0.97;;;17.60;97.30;;;;;;5115421;28;20458;-60
2022/12/31 09:25:57;;;;;;;2.87;0.80;;;17.60;97.10;;;;;;5115816;28;20456;-61
2022/12/31 09:28:38;;;;;;;4.07;0.83;;;17.60;97.20;;;;;;5116219;28;20488;-61
2022/12/31 09:31:13;;;;;;;1.50;0.80;;;17.60;96.90;;;;;;5133590;27;20482;-60
2022/12/31 09:33:47;;;;;;;4.73;1.10;;;17.60;96.80;;;;;;5136784;27;20573;-61
2022/12/31 09:36:19;;;;;;;5.27;0.90;;;17.60;97.00;;;;;;5136559;27;20426;-61
2022/12/31 09:38:54;;;;;;;4.67;1.10;;;17.60;96.60;;;;;;5136265;27;20944;-60
2022/12/31 09:41:41;;;;;;;5.97;1.33;;;17.70;96.50;;;;;;5136733;27;20561;-61
2022/12/31 09:44:35;;;;;;;4.37;1.00;;;17.70;96.30;;;;;;5135894;27;20478;-60
2022/12/31 09:47:25;;;;;;;4.00;1.13;;;17.80;96.30;;;;;;5132221;27;20458;-60
2022/12/31 09:50:20;;;;;;;4.67;1.37;;;17.80;96.10;;;;;;5136298;27;20418;-60
2022/12/31 09:53:21;;;;;;;5.27;1.20;;;17.80;95.90;;;;;;5135992;27;20910;-60
2022/12/31 09:55:55;;;;;;;5.73;0.93;;;17.80;95.90;;;;;;5136345;27;20426;-60
2022/12/31 09:58:34;;;;;;;3.57;1.00;;;17.80;95.90;;;;;;5136214;27;20445;-60
2022/12/31 10:01:06;;;;;;;5.93;1.30;;;17.90;96.00;;;;;;5136106;27;20469;-61
2022/12/31 10:03:50;;;;;;;4.60;1.10;;;17.90;95.60;;;;;;5136594;27;20466;-61
2022/12/31 10:06:24;;;;;;;3.50;0.80;;;17.80;95.50;;;;;;5135814;27;20426;-60
2022/12/31 10:09:15;;;;;;;3.07;0.80;;;17.90;95.70;;;;;;5143140;27;20434;-59
2022/12/31 10:11:59;;;;;;;2.73;1.07;;;17.80;95.60;;;;;;5138349;27;20557;-61
2022/12/31 10:14:41;;;;;;;8.87;1.83;;;17.80;95.80;;;;;;5136314;27;20435;-61
2022/12/31 10:17:22;;;;;;;5.17;1.70;;;17.80;95.60;;;;;;5136389;27;20426;-61
2022/12/31 10:20:19;;;;;;;6.10;1.67;;;17.80;95.60;;;;;;5136642;27;20509;-61
2022/12/31 10:23:22;;;;;;;3.70;1.40;;;17.90;95.60;;;;;;5136041;27;20813;-61
2022/12/31 10:26:04;;;;;;;4.53;1.60;;;17.80;95.40;;;;;;5136097;27;20441;-60
2022/12/31 10:28:44;;;;;;;7.07;1.87;;;17.90;95.80;;;;;;5136788;27;20431;-61
2022/12/31 10:31:15;;;;;;;3.23;1.10;;;17.90;95.80;;;;;;5136212;27;20457;-61
2022/12/31 10:33:44;;;;;;;3.97;1.03;;;17.90;95.60;;;;;;5135918;27;20894;-61
2022/12/31 10:36:18;;;;;;;5.17;1.63;;;18.00;95.40;;;;;;5136961;27;20434;-61
2022/12/31 10:38:56;;;;;;;4.73;1.60;;;18.00;95.20;;;;;;5135941;27;20469;-61
2022/12/31 10:41:59;;;;;;;5.27;1.10;;;18.00;95.10;;;;;;5136009;27;20456;-61
2022/12/31 10:45:03;;;;;;;6.00;1.50;;;18.10;94.90;;;;;;5136378;27;20473;-61
2022/12/31 10:48:03;;;;;;;5.70;1.13;;;18.10;94.90;;;;;;5134920;27;20454;-61
2022/12/31 10:51:14;;;;;;;4.53;1.27;;;18.20;94.60;;;;;;5135297;27;20427;-61
2022/12/31 10:54:12;;;;;;;4.50;1.17;;;18.30;94.70;;;;;;5135276;27;20946;-61
2022/12/31 10:56:59;;;;;;;3.40;0.77;;;18.30;94.50;;;;;;5094072;27;20787;-61
2022/12/31 11:00:07;;;;;;;6.80;1.53;;;18.30;94.50;;;;;;5135301;27;20513;-61
2022/12/31 11:03:25;;;;;;;5.07;1.17;;;18.30;94.60;;;;;;5135375;27;20495;-61
2022/12/31 11:06:27;;;;;;;3.03;0.90;;;18.30;94.50;;;;;;5128893;27;20458;-61
2022/12/31 11:09:38;;;;;;;4.03;1.30;;;18.20;94.30;;;;;;5135183;27;20438;-60
2022/12/31 11:12:17;;;;;;;4.27;1.47;;;18.30;94.50;;;;;;5134909;27;20458;-61
2022/12/31 11:15:25;;;;;;;5.47;1.17;;;18.40;94.40;;;;;;5135120;27;20419;-61
2022/12/31 11:18:06;;;;;;;3.23;0.93;;;18.50;94.10;;;;;;5031782;28;20473;-61
2022/12/31 11:20:54;;;;;;;4.10;1.47;;;18.60;93.70;;;;;;5031835;28;20450;-61
2022/12/31 11:23:33;;;;;;;7.27;1.93;;;18.60;93.40;;;;;;5100266;27;20494;-61
2022/12/31 11:26:09;;;;;;;8.73;2.63;;;18.60;93.30;;;;;;5135455;27;20426;-61
2022/12/31 11:29:18;;;;;;;6.63;1.53;;;18.50;93.50;;;;;;5134888;27;20837;-61
2022/12/31 11:32:02;;;;;;;4.47;1.17;;;18.50;93.50;;;;;;5134600;27;20462;-61
2022/12/31 11:34:51;;;;;;;5.23;1.13;;;18.40;93.40;;;;;;5120029;28;20426;-61
2022/12/31 11:37:29;;;;;;;9.47;1.77;;;18.40;93.40;;;;;;5134812;27;20434;-61
2022/12/31 11:40:12;;;;;;;5.57;1.50;;;18.40;93.40;;;;;;5134521;27;20449;-61
2022/12/31 11:42:46;;;;;;;6.37;1.83;;;18.30;93.30;;;;;;5134858;27;20477;-60
2022/12/31 11:45:16;;;;;;;4.67;1.33;;;18.20;93.50;;;;;;5134563;28;20466;-61
2022/12/31 11:48:03;;;;;;;9.33;1.60;;;18.30;93.60;;;;;;5134578;28;20438;-61
2022/12/31 11:50:42;;;;;;;12.10;1.37;;;18.20;93.50;;;;;;5134657;28;20430;-61
2022/12/31 11:53:34;;;;;;;10.10;1.80;;;18.20;93.70;;;;;;5135329;28;20439;-61
2022/12/31 11:56:12;;;;;;;7.17;1.60;;;18.20;93.70;;;;;;5134655;28;20495;-61
2022/12/31 11:58:41;;;;;;;10.10;1.67;;;18.20;93.70;;;;;;5134656;28;20434;-61
2022/12/31 12:01:12;;;;;;;4.40;1.20;;;18.20;93.90;;;;;;5134219;28;20473;-61
2022/12/31 12:03:47;;;;;;;5.87;1.93;;;18.20;93.70;;;;;;5135496;28;20434;-61
2022/12/31 12:06:17;;;;;;;10.07;2.17;;;18.10;93.50;;;;;;5134516;28;20426;-61
2022/12/31 12:08:44;;;;;;;5.93;1.63;;;18.10;93.70;;;;;;5134107;28;20438;-61
2022/12/31 12:11:18;;;;;;;4.90;1.20;;;18.10;93.70;;;;;;5134513;28;20466;-61
2022/12/31 12:13:45;;;;;;;7.00;1.57;;;18.10;93.50;;;;;;5134545;28;20470;-61
2022/12/31 12:16:13;;;;;;;4.53;0.90;;;18.10;93.30;;;;;;5134358;28;20458;-61
2022/12/31 12:18:43;;;;;;;9.57;1.97;;;18.10;93.30;;;;;;5134574;28;20453;-61
2022/12/31 12:21:13;;;;;;;8.37;1.60;;;18.10;93.20;;;;;;5135421;27;20473;-61
2022/12/31 12:23:42;;;;;;;13.80;1.70;;;18.10;93.30;;;;;;5137624;27;20442;-61
2022/12/31 12:26:28;;;;;;;6.63;1.23;;;18.10;93.40;;;;;;5137971;27;21006;-61
2022/12/31 12:28:55;;;;;;;15.33;2.00;;;18.10;93.40;;;;;;5138581;27;20835;-61
2022/12/31 12:31:25;;;;;;;16.07;2.20;;;18.10;93.50;;;;;;5138577;27;20473;-61
2022/12/31 12:33:52;;;;;;;9.47;1.73;;;18.10;94.10;;;;;;5138884;27;20426;-61
2022/12/31 12:36:20;;;;;;;17.20;2.10;;;18.00;94.00;;;;;;5138151;27;20930;-61
2022/12/31 12:38:48;;;;;;;7.23;1.30;;;18.00;94.00;;;;;;5138390;27;20426;-61
2022/12/31 12:41:22;;;;;;;7.00;1.53;;;18.00;93.70;;;;;;5137793;27;21000;-61
2022/12/31 12:43:49;;;;;;;14.30;1.87;;;18.00;93.70;;;;;;5138106;27;20458;-61
2022/12/31 12:46:21;;;;;;;7.33;1.53;;;18.00;93.60;;;;;;5137852;27;20453;-61
2022/12/31 12:48:54;;;;;;;5.60;1.60;;;18.10;93.40;;;;;;5138747;27;20772;-61
2022/12/31 12:51:33;;;;;;;7.03;1.40;;;18.10;93.40;;;;;;5137969;27;20473;-61
2022/12/31 12:54:08;;;;;;;10.70;1.70;;;18.10;93.30;;;;;;5138020;27;20430;-61
2022/12/31 12:56:41;;;;;;;11.23;1.90;;;18.00;92.70;;;;;;5138218;27;20441;-61
2022/12/31 12:59:34;;;;;;;9.77;2.03;;;18.00;92.80;;;;;;5138024;27;20844;-61
2022/12/31 13:02:19;;;;;;;10.90;1.50;;;18.00;92.80;;;;;;5137274;27;21004;-61
2022/12/31 13:05:00;;;;;;;10.63;1.33;;;18.00;92.70;;;;;;5137604;27;20465;-61
2022/12/31 13:07:37;;;;;;;9.40;2.10;;;18.00;92.80;;;;;;5137514;27;20902;-61
2022/12/31 13:10:23;;;;;;;6.20;1.90;;;18.00;93.60;;;;;;5138105;27;20781;-61
2022/12/31 13:13:00;;;;;;;5.70;1.50;;;18.00;93.50;;;;;;5138761;27;20438;-61
2022/12/31 13:15:33;;;;;;;4.77;1.20;;;18.00;94.00;;;;;;5137928;27;20433;-61
2022/12/31 13:18:11;;;;;;;6.10;1.40;;;17.90;93.70;;;;;;5138073;27;20426;-61
2022/12/31 13:20:43;;;;;;;14.10;2.20;;;17.80;94.00;;;;;;5137986;27;20433;-61
2022/12/31 13:23:18;;;;;;;4.83;1.70;;;17.80;94.20;;;;;;5137833;27;20423;-61
2022/12/31 13:26:00;;;;;;;3.13;1.13;;;17.80;94.40;;;;;;5137367;27;20472;-61
2022/12/31 13:28:28;;;;;;;9.47;1.20;;;17.70;93.70;;;;;;5137683;27;20422;-61
2022/12/31 13:30:59;;;;;;;5.70;1.30;;;17.70;93.50;;;;;;5137263;27;20466;-61
2022/12/31 13:33:31;;;;;;;12.20;1.70;;;17.70;93.60;;;;;;5137144;27;20941;-61
2022/12/31 13:36:00;;;;;;;11.60;1.80;;;17.70;93.40;;;;;;5137183;27;20913;-61
2022/12/31 13:38:30;;;;;;;10.00;1.50;;;17.70;92.70;;;;;;5137020;27;20450;-61